Meteo Giornale » Osservazioni meteo Russia » Orsk
ore: 10:00 - Osservazioni Meteo Orsk
Lat. 51° 4' N Lon. 58° 36' E Alt. 277 metri s.l.m.
17 °C
Sereno
Temp. 24 Ore
5 °C
19 °C
Nord
7.2 Km/h
Dew point 2 °C
Umidità 36 %
Visibilità 10 Km
Il sole sorge alle ore 06:18
Il sole tramonta alle ore 19:52
| Data e Ora | Cielo e Fenomeni | T °C | DP °C | Um. % | Pres. hPa | Vis. km | Vento km/h | |
|---|---|---|---|---|---|---|---|---|
| Oggi h: 10:00 | Sereno | 17 | 2 | 36 | 1023 | 10 | N 7.2 | |
| Oggi h: 09:00 | Sereno | 15 | 2 | 41 | 1022 | 10 | N 3.6 | |
| Oggi h: 08:00 | Sereno | 12 | 2 | 50 | 1022 | 10 | O/NO 10.8 | |
| Oggi h: 07:00 | Sereno | 9 | 2 | 61 | 1022 | 10 | O/NO 10.8 | |
| Oggi h: 06:00 | Sereno | 5 | 0 | 70 | 1022 | 10 | O 10.8 | |
| Oggi h: 05:00 | Sereno | 7 | 0 | 60 | 1022 | 10 | N/NO 10.8 | |
| Oggi h: 04:00 | Sereno | 9 | 0 | 53 | 1021 | 10 | O 18 | |
| Oggi h: 03:00 | Sereno | 11 | 1 | 50 | 1021 | 10 | O 18 | |
| Oggi h: 02:00 | Sereno | 11 | 0 | 46 | 1021 | 10 | O 18 | |
| Oggi h: 01:00 | Sereno | 12 | 0 | 43 | 1021 | 10 | O 21.6 | |
| Oggi h: 00:00 | Sereno | 12 | 0 | 43 | 1021 | 10 | O 21.6 | |
| Ieri h: 23:00 | Sereno | 12 | 0 | 43 | 1021 | 10 | O 18 | |
| Ieri h: 22:00 | Sereno | 11 | 0 | 46 | 1021 | 10 | O/SO 18 | |
| Ieri h: 21:00 | Sereno | 11 | 0 | 46 | 1021 | 10 | O 18 | |
| Ieri h: 20:00 | Sereno | 14 | 0 | 38 | 1020 | 10 | O/NO 14.4 | |
| Ieri h: 19:00 | Sereno | 18 | 0 | 29 | 1020 | 10 | O/NO 25.2 | |
| Ieri h: 18:00 | Sereno | 18 | -1 | 27 | 1020 | 10 | O/NO 28.8 | |
| Ieri h: 17:00 | Sereno | 19 | 0 | 27 | 1020 | 10 | O/NO 28.8 | |
| Ieri h: 16:00 | Sereno | 19 | 0 | 27 | 1021 | 10 | NO 25.2 | |
| Ieri h: 15:00 | Sereno | 19 | 0 | 27 | 1021 | 10 | O/NO 25.2 | |
| Ieri h: 14:00 | Sereno | 17 | 0 | 31 | 1022 | 10 | N/NO 21.6 | |
| Ieri h: 13:00 | Sereno | 16 | 0 | 33 | 1022 | 10 | N/NO 18 | |
| Ieri h: 12:56 | Sereno | 17 | 0 | 31 | 1022 | 10 | N/NO 25.2 | |
| Ieri h: 12:00 | Sereno | 15 | 0 | 35 | 1023 | 10 | N/NO 18 | |
| Ieri h: 11:00 | Sereno | 14 | -1 | 35 | 1023 | 10 | N/NO 18 | |



